createdAt,value
2019-05-22T00:01:24.792Z,100090.42
2019-05-22T00:04:30.293Z,100091.37
2019-05-22T00:07:35.032Z,100095.41
2019-05-22T00:10:40.524Z,100093.98
2019-05-22T00:13:46.716Z,100095.01
2019-05-22T00:16:50.562Z,100097.51
2019-05-22T00:19:53.971Z,100097.77
2019-05-22T00:22:59.239Z,100096.55
2019-05-22T00:26:04.247Z,100102.63
2019-05-22T00:29:08.067Z,100101.55
2019-05-22T00:32:13.103Z,100106.91
2019-05-22T00:35:20.664Z,100100.47
2019-05-22T00:38:24.711Z,100103.04
2019-05-22T00:41:33.264Z,100094.33
2019-05-22T00:44:37.092Z,100104.05
2019-05-22T00:47:41.358Z,100103.54
2019-05-22T00:50:52.905Z,100105.33
2019-05-22T00:54:34.054Z,100115.08
2019-05-22T00:57:46.065Z,100107.19
2019-05-22T01:00:53.687Z,100113.92
2019-05-22T01:03:57.523Z,100112.73
2019-05-22T01:07:04.208Z,100115.70
2019-05-22T01:10:10.685Z,100120.16
2019-05-22T01:13:14.592Z,100119.91
2019-05-22T01:16:18.658Z,100126.59
2019-05-22T01:19:24.335Z,100122.34
2019-05-22T01:22:28.007Z,100121.78
2019-05-22T01:25:33.533Z,100119.63
2019-05-22T01:28:36.567Z,100118.77
2019-05-22T01:31:45.712Z,100124.75
2019-05-22T01:34:49.712Z,100124.75
2019-05-22T01:37:54.341Z,100126.64
2019-05-22T01:41:00.664Z,100130.09
2019-05-22T01:44:06.141Z,100125.85
2019-05-22T01:47:20.104Z,100126.49
2019-05-22T01:50:48.734Z,100134.39
2019-05-22T01:53:53.144Z,100127.13
2019-05-22T01:57:03.793Z,100129.03
2019-05-22T02:00:11.000Z,100129.30
2019-05-22T02:03:16.685Z,100128.53
2019-05-22T02:06:22.970Z,100127.66
2019-05-22T02:09:36.919Z,100130.52
2019-05-22T02:12:54.337Z,100138.59
2019-05-22T02:15:58.110Z,100138.00
2019-05-22T02:19:02.555Z,100141.03
2019-05-22T02:22:06.353Z,100146.98
2019-05-22T02:25:10.640Z,100152.56
2019-05-22T02:28:14.207Z,100154.19
2019-05-22T02:31:22.511Z,100143.91
2019-05-22T02:34:27.670Z,100149.91
2019-05-22T02:37:33.098Z,100154.54
2019-05-22T02:40:38.538Z,100147.14
2019-05-22T02:43:42.661Z,100151.28
2019-05-22T02:46:46.284Z,100155.53
2019-05-22T02:49:51.022Z,100157.84
2019-05-22T02:52:54.924Z,100157.88
2019-05-22T02:55:58.168Z,100163.84
2019-05-22T02:59:04.920Z,100167.83
2019-05-22T03:02:08.149Z,100164.26
2019-05-22T03:05:12.269Z,100166.61
2019-05-22T03:08:15.381Z,100172.23
2019-05-22T03:11:18.389Z,100175.34
2019-05-22T03:14:26.414Z,100173.45
2019-05-22T03:17:31.407Z,100182.17
2019-05-22T03:20:37.008Z,100175.87
2019-05-22T03:23:41.733Z,100177.77
2019-05-22T03:26:48.182Z,100179.36
2019-05-22T03:29:56.020Z,100187.14
2019-05-22T03:33:01.392Z,100186.19
2019-05-22T03:36:15.190Z,100185.41
2019-05-22T03:39:18.701Z,100195.39
2019-05-22T03:42:22.313Z,100198.83
2019-05-22T03:45:25.644Z,100199.05
2019-05-22T03:48:34.718Z,100201.54
2019-05-22T03:51:38.256Z,100206.19
2019-05-22T03:54:43.022Z,100206.25
2019-05-22T03:57:45.925Z,100209.98
2019-05-22T04:00:51.382Z,100209.12
2019-05-22T04:03:54.775Z,100218.62
2019-05-22T04:06:57.913Z,100217.70
2019-05-22T04:10:02.539Z,100226.98
2019-05-22T04:13:06.020Z,100218.35
2019-05-22T04:16:13.065Z,100224.36
2019-05-22T04:19:16.288Z,100225.23
2019-05-22T04:22:19.882Z,100224.05
2019-05-22T04:25:23.619Z,100228.76
2019-05-22T04:28:28.197Z,100240.12
2019-05-22T04:31:51.221Z,100241.73
2019-05-22T04:34:56.641Z,100242.25
2019-05-22T04:37:59.686Z,100246.03
2019-05-22T04:41:07.098Z,100241.02
2019-05-22T04:44:10.873Z,100249.91
2019-05-22T04:47:14.269Z,100254.87
2019-05-22T04:50:17.212Z,100253.86
2019-05-22T04:53:20.964Z,100259.40
2019-05-22T04:56:24.563Z,100266.29
2019-05-22T04:59:28.090Z,100266.41
2019-05-22T05:02:31.398Z,100260.27
2019-05-22T05:05:38.813Z,100265.26
2019-05-22T05:08:42.356Z,100264.73
2019-05-22T05:11:45.733Z,100269.11
2019-05-22T05:14:49.444Z,100275.62
2019-05-22T05:17:52.387Z,100276.66
2019-05-22T05:20:56.493Z,100277.52
2019-05-22T05:23:59.422Z,100279.44
2019-05-22T05:27:04.370Z,100280.95
2019-05-22T05:30:08.031Z,100285.45
2019-05-22T05:33:12.058Z,100286.62
2019-05-22T05:36:14.961Z,100288.86
2019-05-22T05:40:24.983Z,100301.93
2019-05-22T05:43:28.438Z,100298.89
2019-05-22T05:46:31.425Z,100306.52
2019-05-22T05:49:34.424Z,100303.57
2019-05-22T05:52:37.480Z,100308.56
2019-05-22T05:56:14.350Z,100309.34
2019-05-22T05:59:21.108Z,100307.59
2019-05-22T06:02:25.837Z,100308.28
2019-05-22T06:05:29.741Z,100314.75
2019-05-22T06:08:33.385Z,100319.77
2019-05-22T06:11:48.369Z,100323.08
2019-05-22T06:14:54.345Z,100325.14
2019-05-22T06:18:39.334Z,100322.66
2019-05-22T06:21:48.948Z,100328.03
2019-05-22T06:24:57.660Z,100325.90
2019-05-22T06:28:02.564Z,100330.17
2019-05-22T06:31:12.795Z,100336.23
2019-05-22T06:34:16.002Z,100341.83
2019-05-22T06:37:37.641Z,100343.09
2019-05-22T06:40:42.700Z,100350.05
2019-05-22T06:44:38.065Z,100354.66
2019-05-22T06:47:41.003Z,100356.20
2019-05-22T06:50:43.997Z,100352.97
2019-05-22T06:53:46.920Z,100364.98
2019-05-22T06:56:49.840Z,100362.45
2019-05-22T07:00:12.018Z,100368.16
2019-05-22T07:03:01.543Z,100367.80
2019-05-22T07:06:04.907Z,100374.80
2019-05-22T07:09:10.566Z,100375.52
2019-05-22T07:12:17.463Z,100382.36
2019-05-22T07:15:36.030Z,100376.27
2019-05-22T07:18:40.637Z,100380.55
2019-05-22T07:21:45.565Z,100379.87
2019-05-22T07:24:48.782Z,100386.50
2019-05-22T07:27:52.388Z,100381.88
2019-05-22T07:30:55.317Z,100391.36
2019-05-22T07:33:58.620Z,100394.23
2019-05-22T07:37:02.352Z,100396.61
2019-05-22T07:40:07.415Z,100389.97
2019-05-22T07:43:10.683Z,100386.91
2019-05-22T07:46:14.113Z,100400.48
2019-05-22T07:49:17.016Z,100395.28
2019-05-22T07:52:21.021Z,100394.62
2019-05-22T07:55:25.447Z,100398.58
2019-05-22T07:58:30.464Z,100394.27
2019-05-22T08:01:34.778Z,100398.09
2019-05-22T08:04:41.219Z,100393.95
2019-05-22T08:07:44.347Z,100398.29
2019-05-22T08:10:47.886Z,100398.84
2019-05-22T08:13:52.104Z,100401.53
2019-05-22T08:16:55.127Z,100400.69
2019-05-22T08:19:58.056Z,100408.62
2019-05-22T08:23:01.262Z,100408.81
2019-05-22T08:26:05.505Z,100407.32
2019-05-22T08:29:09.931Z,100412.56
2019-05-22T08:32:13.708Z,100411.56
2019-05-22T08:35:16.816Z,100411.67
2019-05-22T08:38:29.426Z,100409.77
2019-05-22T08:41:39.541Z,100417.52
2019-05-22T08:44:42.668Z,100410.73
2019-05-22T08:47:45.772Z,100419.45
2019-05-22T08:50:49.650Z,100414.19
2019-05-22T08:53:54.031Z,100418.86
2019-05-22T08:56:57.549Z,100417.08
2019-05-22T09:00:00.776Z,100417.83
2019-05-22T09:03:05.293Z,100418.08
2019-05-22T09:06:09.467Z,100426.59
2019-05-22T09:09:13.206Z,100433.73
2019-05-22T09:12:18.645Z,100439.37
2019-05-22T09:15:23.080Z,100437.80
2019-05-22T09:18:26.395Z,100432.01
2019-05-22T09:21:29.923Z,100429.42
2019-05-22T09:24:33.243Z,100433.96
2019-05-22T09:27:37.365Z,100435.08
2019-05-22T09:30:40.687Z,100436.87
2019-05-22T09:33:43.609Z,100441.77
2019-05-22T09:36:47.341Z,100455.11
2019-05-22T09:39:50.756Z,100438.72
2019-05-22T09:42:53.844Z,100444.70
2019-05-22T09:45:56.842Z,100447.23
2019-05-22T09:49:00.077Z,100445.30
2019-05-22T09:52:06.593Z,100447.96
2019-05-22T09:55:10.337Z,100448.59
2019-05-22T09:58:13.509Z,100446.36
2019-05-22T10:01:17.338Z,100450.45
2019-05-22T10:04:21.251Z,100443.72
2019-05-22T10:07:25.007Z,100450.36
2019-05-22T10:10:28.414Z,100456.00
2019-05-22T10:13:32.241Z,100459.86
2019-05-22T10:16:36.143Z,100460.91
2019-05-22T10:19:39.428Z,100453.59
2019-05-22T10:22:42.425Z,100456.96
2019-05-22T10:25:45.594Z,100474.34
2019-05-22T10:28:48.810Z,100479.09
2019-05-22T10:31:51.820Z,100479.25
2019-05-22T10:34:57.716Z,100472.48
2019-05-22T10:38:01.263Z,100471.97
2019-05-22T10:41:04.798Z,100470.13
2019-05-22T10:44:07.879Z,100477.59
2019-05-22T10:47:11.073Z,100471.64
2019-05-22T10:50:15.515Z,100461.28
2019-05-22T10:53:32.940Z,100467.05
2019-05-22T10:56:25.139Z,100459.59
2019-05-22T10:59:29.991Z,100456.58
2019-05-22T11:02:33.019Z,100452.47
2019-05-22T11:05:36.450Z,100452.63
2019-05-22T11:08:40.577Z,100454.58
2019-05-22T11:11:43.910Z,100448.23
2019-05-22T11:14:47.245Z,100450.75
2019-05-22T11:17:50.900Z,100445.46
2019-05-22T11:20:54.000Z,100433.98
2019-05-22T11:23:56.913Z,100448.14
2019-05-22T11:26:59.960Z,100454.63
2019-05-22T11:30:04.688Z,100452.77
2019-05-22T11:33:09.383Z,100450.70
2019-05-22T11:36:13.758Z,100448.53
2019-05-22T11:39:36.345Z,100441.66
2019-05-22T11:42:24.876Z,100439.21
2019-05-22T11:45:29.194Z,100449.17
2019-05-22T11:48:32.193Z,100434.42
2019-05-22T11:51:35.544Z,100439.50
2019-05-22T11:54:38.471Z,100433.01
2019-05-22T11:57:42.821Z,100434.09
2019-05-22T12:00:45.851Z,100433.30
2019-05-22T12:03:49.863Z,100442.25
2019-05-22T12:06:54.047Z,100438.52
2019-05-22T12:09:58.297Z,100432.26
2019-05-22T12:13:01.852Z,100431.58
2019-05-22T12:16:05.936Z,100430.19
2019-05-22T12:19:10.116Z,100429.39
2019-05-22T12:22:13.342Z,100430.11
2019-05-22T12:25:17.297Z,100425.05
2019-05-22T12:28:21.033Z,100430.78
2019-05-22T12:31:25.156Z,100430.97
2019-05-22T12:34:28.358Z,100427.81
2019-05-22T12:37:32.899Z,100433.87
2019-05-22T12:40:35.805Z,100431.06
2019-05-22T12:43:39.439Z,100427.22
2019-05-22T12:46:42.997Z,100429.74
2019-05-22T12:49:46.243Z,100424.64
2019-05-22T12:52:49.961Z,100424.09
2019-05-22T12:55:53.349Z,100419.53
2019-05-22T12:58:56.985Z,100419.30
2019-05-22T13:02:00.415Z,100408.14
2019-05-22T13:05:04.788Z,100412.20
2019-05-22T13:08:10.781Z,100413.63
2019-05-22T13:11:14.301Z,100413.55
2019-05-22T13:14:17.218Z,100414.52
2019-05-22T13:17:22.867Z,100414.88
2019-05-22T13:20:42.437Z,100420.68
2019-05-22T13:23:40.888Z,100411.73
2019-05-22T13:26:45.055Z,100409.98
2019-05-22T13:29:49.326Z,100412.73
2019-05-22T13:32:54.944Z,100413.60
2019-05-22T13:35:58.982Z,100413.40
2019-05-22T13:39:04.679Z,100409.53
2019-05-22T13:42:08.288Z,100410.95
2019-05-22T13:45:27.899Z,100412.66
2019-05-22T13:48:17.301Z,100411.73
2019-05-22T13:51:21.159Z,100409.33
2019-05-22T13:54:25.068Z,100409.84
2019-05-22T13:57:28.498Z,100408.19
2019-05-22T14:00:32.009Z,100409.81
2019-05-22T14:03:35.553Z,100407.48
2019-05-22T14:06:38.463Z,100408.89
2019-05-22T14:09:42.328Z,100406.98
2019-05-22T14:12:46.175Z,100403.20
2019-05-22T14:15:56.123Z,100403.41
2019-05-22T14:18:54.615Z,100392.97
2019-05-22T14:21:57.618Z,100392.73
2019-05-22T14:25:00.557Z,100387.59
2019-05-22T14:28:04.304Z,100391.81
2019-05-22T14:31:07.239Z,100393.73
2019-05-22T14:34:10.851Z,100390.47
2019-05-22T14:37:14.384Z,100396.77
2019-05-22T14:40:18.596Z,100390.62
2019-05-22T14:43:21.525Z,100390.63
2019-05-22T14:46:24.792Z,100388.77
2019-05-22T14:49:27.776Z,100386.89
2019-05-22T14:52:33.228Z,100393.81
2019-05-22T14:55:36.460Z,100386.77
2019-05-22T14:58:41.318Z,100385.21
2019-05-22T15:01:44.444Z,100387.27
2019-05-22T15:04:49.042Z,100391.02
2019-05-22T15:07:52.547Z,100386.80
2019-05-22T15:10:56.911Z,100391.60
2019-05-22T15:14:00.251Z,100392.23
2019-05-22T15:17:03.462Z,100394.09
2019-05-22T15:20:07.504Z,100388.81
2019-05-22T15:23:10.938Z,100388.16
2019-05-22T15:26:14.569Z,100381.61
2019-05-22T15:29:18.566Z,100381.89
2019-05-22T15:32:23.774Z,100378.93
2019-05-22T15:35:27.080Z,100369.73
2019-05-22T15:38:30.404Z,100382.19
2019-05-22T15:41:34.241Z,100380.05
2019-05-22T15:44:39.382Z,100370.72
2019-05-22T15:47:54.673Z,100374.58
2019-05-22T15:50:53.229Z,100364.69
2019-05-22T15:54:01.028Z,100368.70
2019-05-22T15:57:09.887Z,100361.70
2019-05-22T16:00:18.582Z,100365.31
2019-05-22T16:03:27.512Z,100364.95
2019-05-22T16:06:31.433Z,100359.01
2019-05-22T16:09:35.163Z,100353.22
2019-05-22T16:12:38.703Z,100356.72
2019-05-22T16:15:46.122Z,100357.91
2019-05-22T16:18:52.507Z,100349.72
2019-05-22T16:22:02.297Z,100353.09
2019-05-22T16:25:07.324Z,100360.80
2019-05-22T16:28:13.309Z,100355.50
2019-05-22T16:31:18.662Z,100355.24
2019-05-22T16:34:22.223Z,100353.34
2019-05-22T16:37:26.877Z,100353.52
2019-05-22T16:40:31.293Z,100355.27
2019-05-22T16:43:48.852Z,100344.84
2019-05-22T16:46:45.363Z,100347.12
2019-05-22T16:49:53.592Z,100347.09
2019-05-22T16:53:01.981Z,100354.88
2019-05-22T16:56:05.596Z,100351.02
2019-05-22T16:59:11.166Z,100352.42
2019-05-22T17:02:16.355Z,100348.44
2019-05-22T17:05:21.985Z,100353.35
2019-05-22T17:08:28.657Z,100352.17
2019-05-22T17:11:32.369Z,100345.95
2019-05-22T17:14:36.061Z,100346.50
2019-05-22T17:17:39.684Z,100349.41
2019-05-22T17:20:44.527Z,100344.45
2019-05-22T17:23:49.429Z,100345.56
2019-05-22T17:26:52.947Z,100344.76
2019-05-22T17:29:56.804Z,100343.18
2019-05-22T17:32:59.966Z,100350.30
2019-05-22T17:36:05.736Z,100346.69
2019-05-22T17:39:10.604Z,100348.25
2019-05-22T17:42:23.040Z,100350.98
2019-05-22T17:45:28.091Z,100350.34
2019-05-22T17:48:33.407Z,100361.86
2019-05-22T17:51:36.693Z,100356.80
2019-05-22T17:54:40.871Z,100352.53
2019-05-22T17:57:44.682Z,100349.88
2019-05-22T18:00:49.847Z,100343.53
2019-05-22T18:03:53.359Z,100348.03
2019-05-22T18:06:57.062Z,100352.56
2019-05-22T18:10:00.167Z,100349.59
2019-05-22T18:13:05.345Z,100346.32
2019-05-22T18:16:08.748Z,100352.67
2019-05-22T18:19:12.505Z,100353.55
2019-05-22T18:22:15.740Z,100358.30
2019-05-22T18:25:19.028Z,100356.45
2019-05-22T18:28:22.688Z,100351.12
2019-05-22T18:31:26.015Z,100351.14
2019-05-22T18:34:28.943Z,100352.37
2019-05-22T18:37:32.210Z,100348.08
2019-05-22T18:40:35.245Z,100348.02
2019-05-22T18:43:39.803Z,100348.07
2019-05-22T18:46:43.105Z,100354.50
2019-05-22T18:49:46.069Z,100353.89
2019-05-22T18:52:50.110Z,100357.18
2019-05-22T18:55:53.053Z,100354.21
2019-05-22T18:58:56.436Z,100360.69
2019-05-22T19:02:00.125Z,100364.74
2019-05-22T19:05:04.284Z,100355.23
2019-05-22T19:08:07.416Z,100354.20
2019-05-22T19:11:10.331Z,100360.02
2019-05-22T19:14:14.708Z,100357.48
2019-05-22T19:17:18.066Z,100360.62
2019-05-22T19:20:22.595Z,100365.02
2019-05-22T19:23:25.860Z,100364.88
2019-05-22T19:26:29.328Z,100370.68
2019-05-22T19:29:32.475Z,100373.16
2019-05-22T19:32:36.327Z,100379.06
2019-05-22T19:35:39.736Z,100374.05
2019-05-22T19:38:42.757Z,100378.24
2019-05-22T19:41:59.843Z,100379.81
2019-05-22T19:44:51.538Z,100382.26
2019-05-22T19:47:57.167Z,100385.70
2019-05-22T19:51:02.151Z,100391.55
2019-05-22T19:54:05.690Z,100389.24
2019-05-22T19:57:10.707Z,100395.99
2019-05-22T20:00:15.413Z,100402.77
2019-05-22T20:03:19.354Z,100398.86
2019-05-22T20:06:23.359Z,100403.45
2019-05-22T20:09:27.509Z,100398.07
2019-05-22T20:12:33.577Z,100409.07
2019-05-22T20:15:37.890Z,100416.05
2019-05-22T20:18:42.449Z,100404.09
2019-05-22T20:21:46.781Z,100412.48
2019-05-22T20:24:49.915Z,100416.02
2019-05-22T20:27:54.491Z,100409.23
2019-05-22T20:30:58.079Z,100410.48
2019-05-22T20:34:01.094Z,100411.70
2019-05-22T20:37:04.594Z,100414.66
2019-05-22T20:40:09.095Z,100414.58
2019-05-22T20:43:13.220Z,100414.42
2019-05-22T20:46:18.163Z,100410.79
2019-05-22T20:49:22.165Z,100405.42
2019-05-22T20:52:29.436Z,100411.88
2019-05-22T20:55:34.062Z,100411.41
2019-05-22T20:58:38.910Z,100412.29
2019-05-22T21:01:42.633Z,100413.87
2019-05-22T21:04:47.519Z,100413.37
2019-05-22T21:07:56.253Z,100416.83
2019-05-22T21:11:01.147Z,100421.82
2019-05-22T21:14:05.131Z,100427.42
2019-05-22T21:17:08.703Z,100425.97
2019-05-22T21:20:15.064Z,100436.03
2019-05-22T21:23:19.776Z,100440.47
2019-05-22T21:26:22.989Z,100434.68
2019-05-22T21:29:26.863Z,100441.48
2019-05-22T21:32:30.064Z,100447.40
2019-05-22T21:35:34.411Z,100445.55
2019-05-22T21:38:38.973Z,100446.92
2019-05-22T21:41:42.958Z,100449.92
2019-05-22T21:44:46.173Z,100448.25
2019-05-22T21:47:50.981Z,100448.86
2019-05-22T21:50:54.722Z,100450.39
2019-05-22T21:53:58.525Z,100457.66
2019-05-22T21:57:01.866Z,100454.00
2019-05-22T22:00:10.143Z,100454.34
2019-05-22T22:03:18.698Z,100454.23
2019-05-22T22:06:24.267Z,100453.92
2019-05-22T22:09:27.886Z,100456.59
2019-05-22T22:12:31.849Z,100453.86
2019-05-22T22:15:39.680Z,100459.55
2019-05-22T22:18:43.496Z,100459.48
2019-05-22T22:21:47.939Z,100458.55
2019-05-22T22:24:52.026Z,100459.57
2019-05-22T22:27:56.012Z,100460.41
2019-05-22T22:31:03.883Z,100463.97
2019-05-22T22:34:39.244Z,100463.38
2019-05-22T22:37:43.211Z,100467.80
2019-05-22T22:40:48.907Z,100470.67
2019-05-22T22:43:52.840Z,100467.24
2019-05-22T22:47:02.759Z,100467.20
2019-05-22T22:50:07.265Z,100463.30
2019-05-22T22:53:11.479Z,100462.31
2019-05-22T22:56:16.917Z,100462.39
2019-05-22T22:59:20.419Z,100463.61
2019-05-22T23:02:29.973Z,100459.38
2019-05-22T23:05:34.914Z,100459.06
2019-05-22T23:08:39.036Z,100466.69
2019-05-22T23:11:45.000Z,100464.41
2019-05-22T23:14:56.104Z,100459.20
2019-05-22T23:18:01.434Z,100463.92
2019-05-22T23:21:04.112Z,100457.73
2019-05-22T23:24:07.408Z,100457.30
2019-05-22T23:27:12.688Z,100455.09
2019-05-22T23:30:17.819Z,100455.89
2019-05-22T23:33:21.379Z,100455.42
2019-05-22T23:36:24.578Z,100449.19
2019-05-22T23:39:30.061Z,100445.76
2019-05-22T23:42:39.848Z,100450.37
2019-05-22T23:45:42.975Z,100447.84
2019-05-22T23:48:46.687Z,100447.09
2019-05-22T23:51:50.314Z,100455.06
2019-05-22T23:54:54.285Z,100456.89
2019-05-22T23:57:58.051Z,100458.14
